< Typhoon 200221 2002 Season Typhoon 200223 >
Typhoon 200222 (BAVI)
General InformationTrack Information on Google MapsDetailed Wind InformationList of All Images || Disaster Info.ResourceGoogle EarthGE AnimationAtom FeedGeoJSON
Detalied Best Track (Time Zone = UTC)
Year Month Day Hour Lat. Long. Pressure (hPa) Wind (kt) Class Image Chart
2002 10 8 12 10.1 156.0 998 0 2 Image Chart
2002 10 8 18 11.6 154.7 996 0 2 Image Chart
2002 10 9 00 11.9 154.6 996 0 2 Image Chart
2002 10 9 06 12.7 153.4 996 0 2 Image Chart
2002 10 9 12 13.2 152.3 994 0 2 Image Chart
2002 10 9 18 13.6 151.3 990 40 3 Image Chart
2002 10 10 00 13.9 150.4 990 40 3 Image Chart
2002 10 10 06 14.5 150.2 990 40 3 Image Chart
2002 10 10 12 16.0 150.2 990 40 3 Image Chart
2002 10 10 18 17.5 150.1 985 45 3 Image Chart
2002 10 11 00 19.1 149.4 985 50 4 Image Chart
2002 10 11 06 20.4 148.8 985 50 4 Image Chart
2002 10 11 12 21.7 148.7 985 50 4 Image Chart
2002 10 11 18 22.5 148.2 985 55 4 Image Chart
2002 10 12 00 23.0 147.4 985 50 4 Image Chart
2002 10 12 06 24.2 147.1 990 45 3 Image Chart
2002 10 12 12 25.6 146.8 990 45 3 Image Chart
2002 10 12 18 26.8 146.7 990 45 3 Image Chart
2002 10 13 00 27.8 147.1 990 45 3 Image Chart
2002 10 13 06 28.9 147.5 990 45 3 Image Chart
2002 10 13 12 30.8 148.0 990 0 6 Image Chart
2002 10 13 18 34.0 149.0 988 0 6 Image Chart
2002 10 14 00 38.0 153.0 984 0 6 Image Chart
2002 10 14 06 39.2 154.8 976 0 6 Image Chart
2002 10 14 12 41.7 157.8 976 0 6 Image Chart
2002 10 14 18 44.2 160.8 972 0 6 Image Chart
2002 10 15 00 45.9 163.5 972 0 6 Image Chart
2002 10 15 06 47.3 167.3 972 0 6 Image Chart
2002 10 15 12 47.2 172.4 972 0 6 Image Chart
2002 10 15 18 46.8 174.5 972 0 6 Image Chart
2002 10 16 00 46.8 178.3 970 0 6 Image Chart
2002 10 16 06 46.1 181.6 972 0 6 Image Chart
Japan Meteorological Agency Best Track Data | Correction Date : 2006-01-18
< Typhoon 200221 2002 Season Typhoon 200223 >

Help